createdAt,value
2023-11-21T00:01:45.795Z,7.31
2023-11-21T00:04:49.187Z,7.31
2023-11-21T00:07:50.938Z,7.33
2023-11-21T00:10:52.853Z,7.43
2023-11-21T00:13:54.651Z,7.36
2023-11-21T00:16:56.453Z,7.30
2023-11-21T00:19:59.568Z,7.36
2023-11-21T00:23:01.427Z,7.41
2023-11-21T00:26:03.129Z,7.45
2023-11-21T00:29:04.935Z,7.37
2023-11-21T00:32:07.552Z,7.46
2023-11-21T00:35:10.988Z,7.45
2023-11-21T00:38:12.712Z,7.36
2023-11-21T00:41:14.440Z,7.28
2023-11-21T00:44:16.226Z,7.35
2023-11-21T00:47:18.044Z,7.42
2023-11-21T00:50:23.433Z,7.35
2023-11-21T00:53:25.195Z,7.45
2023-11-21T00:56:27.013Z,7.41
2023-11-21T00:59:28.758Z,7.32
2023-11-21T01:02:30.527Z,7.32
2023-11-21T01:05:33.626Z,7.15
2023-11-21T01:08:35.385Z,7.15
2023-11-21T01:11:37.373Z,7.18
2023-11-21T01:14:39.097Z,7.19
2023-11-21T01:17:41.069Z,7.13
2023-11-21T01:20:44.228Z,7.10
2023-11-21T01:23:45.924Z,7.12
2023-11-21T01:26:47.645Z,7.11
2023-11-21T01:29:49.619Z,7.09
2023-11-21T01:32:51.638Z,7.01
2023-11-21T01:35:54.909Z,6.82
2023-11-21T01:38:56.597Z,6.81
2023-11-21T01:41:58.344Z,6.78
2023-11-21T01:45:00.040Z,6.85
2023-11-21T01:48:02.113Z,6.70
2023-11-21T01:51:05.757Z,6.62
2023-11-21T01:54:15.434Z,6.48
2023-11-21T01:57:22.790Z,6.32
2023-11-21T02:00:24.642Z,6.42
2023-11-21T02:03:26.606Z,6.42
2023-11-21T02:06:31.215Z,6.52
2023-11-21T02:09:33.215Z,6.58
2023-11-21T02:12:34.991Z,6.42
2023-11-21T02:15:36.761Z,6.54
2023-11-21T02:18:38.624Z,6.55
2023-11-21T02:21:41.770Z,6.62
2023-11-21T02:24:44.855Z,6.67
2023-11-21T02:27:49.230Z,6.70
2023-11-21T02:30:50.969Z,6.73
2023-11-21T02:33:52.684Z,6.76
2023-11-21T02:36:54.516Z,6.75
2023-11-21T02:39:57.616Z,6.81
2023-11-21T02:42:59.345Z,6.84
2023-11-21T02:46:01.048Z,6.90
2023-11-21T02:49:03.499Z,6.88
2023-11-21T02:52:05.757Z,6.88
2023-11-21T02:55:09.585Z,6.93
2023-11-21T02:58:11.274Z,6.92
2023-11-21T03:01:13.014Z,6.96
2023-11-21T03:04:14.856Z,6.90
2023-11-21T03:07:16.741Z,6.87
2023-11-21T03:10:19.921Z,6.86
2023-11-21T03:13:21.631Z,6.89
2023-11-21T03:16:23.400Z,6.86
2023-11-21T03:19:25.293Z,6.87
2023-11-21T03:22:27.220Z,6.81
2023-11-21T03:25:30.408Z,6.86
2023-11-21T03:28:32.205Z,6.85
2023-11-21T03:31:36.484Z,6.79
2023-11-21T03:34:54.776Z,6.77
2023-11-21T03:37:56.667Z,6.77
2023-11-21T03:40:59.742Z,6.77
2023-11-21T03:44:01.456Z,6.70
2023-11-21T03:47:03.300Z,6.57
2023-11-21T03:50:05.959Z,6.48
2023-11-21T03:53:07.689Z,6.55
2023-11-21T03:56:11.035Z,6.57
2023-11-21T03:59:12.791Z,6.60
2023-11-21T04:02:14.533Z,6.60
2023-11-21T04:05:16.300Z,6.60
2023-11-21T04:08:18.065Z,6.69
2023-11-21T04:11:21.218Z,6.68
2023-11-21T04:14:23.812Z,6.69
2023-11-21T04:17:25.643Z,6.67
2023-11-21T04:20:27.499Z,6.69
2023-11-21T04:23:30.632Z,6.65
2023-11-21T04:26:33.909Z,6.61
2023-11-21T04:29:35.606Z,6.64
2023-11-21T04:32:40.304Z,6.56
2023-11-21T04:35:42.059Z,6.55
2023-11-21T04:38:43.987Z,6.55
2023-11-21T04:41:47.121Z,6.55
2023-11-21T04:44:49.158Z,6.54
2023-11-21T04:47:50.891Z,6.49
2023-11-21T04:50:52.693Z,6.53
2023-11-21T04:53:54.497Z,6.44
2023-11-21T04:56:57.712Z,6.46
2023-11-21T04:59:59.737Z,6.43
2023-11-21T05:03:01.582Z,6.48
2023-11-21T05:06:03.644Z,6.49
2023-11-21T05:09:05.489Z,6.53
2023-11-21T05:12:09.091Z,6.47
2023-11-21T05:15:14.665Z,6.48
2023-11-21T05:18:16.425Z,6.33
2023-11-21T05:21:18.281Z,6.36
2023-11-21T05:24:19.983Z,6.38
2023-11-21T05:27:23.083Z,6.41
2023-11-21T05:30:24.850Z,6.45
2023-11-21T05:33:26.572Z,6.42
2023-11-21T05:36:28.247Z,6.39
2023-11-21T05:39:30.119Z,6.36
2023-11-21T05:42:33.205Z,6.38
2023-11-21T05:45:34.921Z,6.36
2023-11-21T05:48:36.650Z,6.37
2023-11-21T05:51:38.414Z,6.35
2023-11-21T05:54:40.117Z,6.41
2023-11-21T05:57:44.929Z,6.42
2023-11-21T06:00:46.790Z,6.30
2023-11-21T06:03:48.582Z,6.23
2023-11-21T06:06:50.500Z,6.35
2023-11-21T06:09:52.212Z,6.33
2023-11-21T06:12:55.373Z,6.28
2023-11-21T06:15:57.090Z,6.30
2023-11-21T06:18:58.823Z,6.22
2023-11-21T06:22:00.482Z,6.16
2023-11-21T06:25:02.200Z,6.02
2023-11-21T06:28:05.479Z,6.05
2023-11-21T06:31:10.116Z,6.10
2023-11-21T06:34:11.963Z,6.11
2023-11-21T06:37:13.685Z,6.11
2023-11-21T06:40:16.161Z,5.96
2023-11-21T06:43:19.293Z,6.07
2023-11-21T06:46:21.271Z,6.15
2023-11-21T06:49:23.132Z,6.22
2023-11-21T06:52:24.854Z,6.21
2023-11-21T06:55:26.624Z,6.24
2023-11-21T06:58:29.792Z,6.32
2023-11-21T07:01:31.570Z,6.33
2023-11-21T07:04:33.371Z,6.26
2023-11-21T07:07:35.244Z,6.30
2023-11-21T07:10:37.204Z,6.35
2023-11-21T07:13:40.334Z,6.21
2023-11-21T07:16:42.097Z,6.32
2023-11-21T07:19:43.890Z,6.42
2023-11-21T07:22:45.683Z,6.29
2023-11-21T07:25:47.742Z,6.35
2023-11-21T07:28:51.846Z,6.39
2023-11-21T07:31:53.793Z,6.41
2023-11-21T07:34:55.548Z,6.44
2023-11-21T07:37:57.485Z,6.34
2023-11-21T07:40:59.255Z,6.42
2023-11-21T07:44:02.428Z,6.49
2023-11-21T07:47:04.574Z,6.42
2023-11-21T07:50:09.862Z,6.46
2023-11-21T07:53:11.605Z,6.52
2023-11-21T07:56:13.316Z,6.52
2023-11-21T07:59:16.420Z,6.45
2023-11-21T08:02:18.115Z,6.47
2023-11-21T08:05:25.365Z,6.51
2023-11-21T08:08:34.330Z,6.64
2023-11-21T08:11:36.034Z,6.53
2023-11-21T08:14:39.130Z,6.52
2023-11-21T08:17:40.974Z,6.45
2023-11-21T08:20:42.953Z,6.48
2023-11-21T08:23:44.735Z,6.50
2023-11-21T08:26:46.456Z,6.50
2023-11-21T08:29:49.665Z,6.45
2023-11-21T08:32:51.453Z,6.50
2023-11-21T08:35:53.407Z,6.32
2023-11-21T08:38:55.296Z,6.31
2023-11-21T08:41:57.562Z,6.28
2023-11-21T08:45:00.699Z,6.26
2023-11-21T08:48:02.707Z,6.17
2023-11-21T08:51:05.230Z,6.18
2023-11-21T08:54:09.650Z,6.22
2023-11-21T08:57:11.390Z,6.29
2023-11-21T09:00:15.058Z,6.32
2023-11-21T09:03:16.888Z,6.27
2023-11-21T09:06:18.740Z,6.22
2023-11-21T09:09:20.501Z,6.34
2023-11-21T09:12:22.271Z,6.35
2023-11-21T09:15:25.741Z,6.21
2023-11-21T09:18:30.075Z,6.32
2023-11-21T09:21:31.896Z,6.31
2023-11-21T09:24:33.653Z,6.36
2023-11-21T09:27:35.464Z,6.38
2023-11-21T09:30:38.729Z,6.43
2023-11-21T09:33:40.493Z,6.48
2023-11-21T09:36:42.287Z,6.52
2023-11-21T09:39:44.017Z,6.44
2023-11-21T09:42:56.329Z,6.42
2023-11-21T09:46:02.807Z,6.35
2023-11-21T09:49:05.511Z,6.33
2023-11-21T09:52:13.133Z,6.42
2023-11-21T09:55:16.950Z,6.50
2023-11-21T09:58:19.149Z,6.58
2023-11-21T10:01:27.631Z,6.66
2023-11-21T10:04:29.753Z,6.52
2023-11-21T10:07:35.229Z,6.58
2023-11-21T10:10:37.618Z,6.44
2023-11-21T10:13:40.248Z,6.50
2023-11-21T10:16:45.400Z,6.46
2023-11-21T10:19:48.250Z,6.50
2023-11-21T10:22:50.147Z,6.47
2023-11-21T10:25:52.157Z,6.44
2023-11-21T10:28:57.539Z,6.55
2023-11-21T10:32:00.713Z,6.49
2023-11-21T10:35:05.270Z,6.48
2023-11-21T10:38:07.161Z,6.48
2023-11-21T10:41:12.402Z,6.57
2023-11-21T10:44:15.338Z,6.52
2023-11-21T10:47:18.736Z,6.59
2023-11-21T10:50:20.654Z,6.55
2023-11-21T10:53:22.511Z,6.47
2023-11-21T10:56:26.603Z,6.55
2023-11-21T10:59:30.793Z,6.62
2023-11-21T11:02:34.523Z,6.58
2023-11-21T11:05:37.025Z,6.69
2023-11-21T11:08:39.391Z,6.70
2023-11-21T11:11:41.210Z,6.76
2023-11-21T11:14:43.257Z,6.83
2023-11-21T11:17:46.473Z,6.86
2023-11-21T11:20:52.036Z,6.80
2023-11-21T11:24:13.149Z,6.71
2023-11-21T11:27:25.672Z,6.76
2023-11-21T11:30:40.576Z,6.77
2023-11-21T11:33:49.756Z,6.76
2023-11-21T11:37:01.120Z,6.76
2023-11-21T11:40:07.226Z,6.76
2023-11-21T11:43:09.174Z,6.87
2023-11-21T11:46:11.765Z,6.90
2023-11-21T11:49:28.287Z,6.89
2023-11-21T11:52:37.934Z,7.02
2023-11-21T11:55:39.833Z,6.98
2023-11-21T11:58:43.121Z,6.97
2023-11-21T12:01:47.963Z,6.99
2023-11-21T12:04:56.818Z,7.01
2023-11-21T12:08:00.601Z,6.99
2023-11-21T12:11:07.572Z,6.80
2023-11-21T12:14:09.413Z,6.77
2023-11-21T12:17:11.211Z,6.89
2023-11-21T12:20:14.937Z,6.77
2023-11-21T12:23:16.710Z,6.86
2023-11-21T12:26:18.436Z,6.88
2023-11-21T12:29:20.236Z,6.88
2023-11-21T12:32:22.527Z,6.88
2023-11-21T12:35:27.278Z,6.73
2023-11-21T12:38:35.065Z,6.76
2023-11-21T12:41:36.808Z,6.65
2023-11-21T12:44:40.107Z,6.64
2023-11-21T12:47:43.244Z,6.74
2023-11-21T12:50:46.414Z,6.67
2023-11-21T12:53:48.282Z,6.68
2023-11-21T12:56:50.994Z,6.60
2023-11-21T12:59:52.693Z,6.66
2023-11-21T13:02:55.505Z,6.74
2023-11-21T13:05:58.762Z,6.83
2023-11-21T13:09:01.731Z,6.84
2023-11-21T13:12:03.674Z,6.88
2023-11-21T13:15:07.822Z,6.88
2023-11-21T13:18:09.590Z,6.89
2023-11-21T13:21:12.858Z,6.89
2023-11-21T13:24:14.579Z,6.91
2023-11-21T13:27:16.342Z,6.92
2023-11-21T13:30:18.354Z,6.97
2023-11-21T13:33:20.672Z,6.99
2023-11-21T13:36:24.360Z,6.98
2023-11-21T13:39:26.119Z,6.95
2023-11-21T13:42:27.821Z,7.00
2023-11-21T13:45:31.990Z,7.03
2023-11-21T13:48:34.913Z,7.06
2023-11-21T13:51:38.169Z,6.98
2023-11-21T13:54:39.909Z,7.07
2023-11-21T13:57:41.604Z,6.85
2023-11-21T14:00:43.352Z,6.90
2023-11-21T14:03:45.254Z,6.90
2023-11-21T14:06:50.337Z,6.88
2023-11-21T14:09:52.303Z,6.78
2023-11-21T14:12:54.002Z,6.81
2023-11-21T14:15:55.745Z,6.81
2023-11-21T14:18:57.461Z,6.75
2023-11-21T14:22:00.823Z,6.79
2023-11-21T14:25:02.575Z,6.76
2023-11-21T14:28:04.895Z,6.83
2023-11-21T14:31:06.794Z,6.89
2023-11-21T14:34:08.863Z,6.82
2023-11-21T14:37:11.974Z,6.83
2023-11-21T14:40:13.707Z,6.80
2023-11-21T14:43:15.391Z,6.58
2023-11-21T14:46:17.130Z,6.58
2023-11-21T14:49:18.880Z,6.64
2023-11-21T14:52:25.187Z,6.60
2023-11-21T14:55:26.986Z,6.54
2023-11-21T14:58:28.786Z,6.52
2023-11-21T15:01:33.003Z,6.57
2023-11-21T15:04:37.840Z,6.62
2023-11-21T15:07:42.151Z,6.51
2023-11-21T15:10:43.974Z,6.47
2023-11-21T15:13:45.775Z,6.61
2023-11-21T15:16:47.789Z,6.42
2023-11-21T15:19:49.738Z,6.46
2023-11-21T15:22:52.907Z,6.45
2023-11-21T15:25:54.801Z,6.36
2023-11-21T15:28:56.747Z,6.37
2023-11-21T15:31:58.593Z,6.30
2023-11-21T15:35:00.483Z,6.33
2023-11-21T15:38:03.675Z,6.46
2023-11-21T15:41:05.743Z,6.46
2023-11-21T15:44:10.056Z,6.43
2023-11-21T15:47:11.889Z,6.47
2023-11-21T15:50:13.759Z,6.41
2023-11-21T15:53:16.895Z,6.43
2023-11-21T15:56:20.838Z,6.49
2023-11-21T15:59:22.662Z,6.56
2023-11-21T16:02:24.423Z,6.64
2023-11-21T16:05:26.273Z,6.64
2023-11-21T16:08:29.371Z,6.67
2023-11-21T16:11:31.087Z,6.71
2023-11-21T16:14:35.293Z,6.72
2023-11-21T16:17:37.411Z,6.78
2023-11-21T16:20:39.307Z,6.81
2023-11-21T16:23:42.408Z,6.88
2023-11-21T16:26:44.198Z,6.87
2023-11-21T16:29:45.912Z,6.84
2023-11-21T16:32:47.688Z,6.86
2023-11-21T16:35:49.392Z,6.85
2023-11-21T16:38:52.528Z,6.87
2023-11-21T16:41:54.232Z,6.80
2023-11-21T16:44:55.932Z,6.91
2023-11-21T16:47:57.711Z,7.07
2023-11-21T16:50:59.490Z,7.12
2023-11-21T16:54:02.592Z,7.23
2023-11-21T16:57:04.853Z,7.18
2023-11-21T17:00:07.491Z,7.22
2023-11-21T17:03:09.355Z,7.25
2023-11-21T17:06:11.175Z,7.23
2023-11-21T17:09:14.346Z,7.16
2023-11-21T17:12:16.086Z,7.18
2023-11-21T17:15:17.857Z,7.24
2023-11-21T17:18:19.618Z,7.18
2023-11-21T17:21:26.369Z,7.11
2023-11-21T17:24:33.205Z,7.11
2023-11-21T17:27:34.961Z,7.08
2023-11-21T17:30:36.685Z,6.99
2023-11-21T17:33:39.425Z,6.99
2023-11-21T17:36:42.402Z,6.99
2023-11-21T17:39:45.582Z,6.94
2023-11-21T17:42:47.314Z,7.01
2023-11-21T17:45:49.112Z,7.00
2023-11-21T17:48:51.471Z,6.92
2023-11-21T17:51:53.230Z,6.80
2023-11-21T17:54:56.329Z,6.70
2023-11-21T17:57:58.282Z,6.51
2023-11-21T18:01:00.119Z,6.49
2023-11-21T18:04:02.213Z,6.59
2023-11-21T18:07:04.358Z,6.65
2023-11-21T18:10:09.067Z,6.66
2023-11-21T18:13:10.790Z,6.54
2023-11-21T18:16:12.496Z,6.16
2023-11-21T18:19:14.298Z,6.35
2023-11-21T18:22:15.996Z,6.17
2023-11-21T18:25:19.310Z,6.15
2023-11-21T18:28:21.126Z,6.21
2023-11-21T18:31:22.867Z,6.20
2023-11-21T18:34:24.605Z,6.42
2023-11-21T18:37:26.331Z,6.20
2023-11-21T18:40:29.551Z,6.15
2023-11-21T18:43:31.279Z,6.13
2023-11-21T18:46:37.108Z,6.02
2023-11-21T18:49:39.093Z,5.91
2023-11-21T18:52:40.842Z,5.91
2023-11-21T18:55:44.023Z,6.15
2023-11-21T18:58:45.803Z,6.19
2023-11-21T19:01:47.802Z,6.07
2023-11-21T19:04:49.740Z,5.98
2023-11-21T19:07:51.735Z,5.98
2023-11-21T19:10:56.085Z,5.88
2023-11-21T19:13:57.901Z,5.98
2023-11-21T19:17:00.263Z,6.03
2023-11-21T19:20:02.829Z,6.11
2023-11-21T19:23:04.611Z,6.14
2023-11-21T19:26:07.761Z,6.23
2023-11-21T19:29:09.685Z,6.34
2023-11-21T19:32:11.943Z,6.39
2023-11-21T19:35:14.106Z,6.29
2023-11-21T19:38:16.307Z,6.15
2023-11-21T19:41:21.266Z,5.95
2023-11-21T19:44:23.660Z,5.92
2023-11-21T19:47:25.710Z,6.09
2023-11-21T19:50:27.583Z,6.19
2023-11-21T19:53:29.341Z,6.27
2023-11-21T19:56:32.470Z,6.35
2023-11-21T19:59:34.890Z,6.34
2023-11-21T20:02:36.846Z,6.38
2023-11-21T20:05:38.949Z,6.43
2023-11-21T20:08:40.703Z,6.48
2023-11-21T20:11:43.893Z,6.53
2023-11-21T20:14:45.739Z,6.57
2023-11-21T20:17:49.242Z,6.60
2023-11-21T20:20:51.815Z,6.62
2023-11-21T20:23:53.654Z,6.68
2023-11-21T20:26:57.601Z,6.64
2023-11-21T20:29:59.354Z,6.64
2023-11-21T20:33:01.228Z,6.64
2023-11-21T20:36:03.215Z,6.64
2023-11-21T20:39:05.046Z,6.60
2023-11-21T20:42:08.449Z,6.62
2023-11-21T20:45:10.779Z,6.67
2023-11-21T20:48:12.849Z,6.68
2023-11-21T20:51:14.762Z,6.66
2023-11-21T20:54:16.570Z,6.63
2023-11-21T20:57:19.698Z,6.60
2023-11-21T21:00:21.639Z,6.51
2023-11-21T21:03:23.570Z,6.52
2023-11-21T21:06:25.324Z,6.51
2023-11-21T21:09:27.135Z,6.45
2023-11-21T21:12:30.195Z,6.39
2023-11-21T21:15:31.989Z,6.43
2023-11-21T21:18:33.807Z,6.43
2023-11-21T21:21:35.583Z,6.36
2023-11-21T21:24:37.351Z,6.32
2023-11-21T21:27:40.613Z,6.32
2023-11-21T21:30:42.478Z,6.38
2023-11-21T21:33:44.954Z,6.36
2023-11-21T21:36:46.735Z,6.29
2023-11-21T21:39:48.469Z,6.28
2023-11-21T21:42:51.535Z,6.28
2023-11-21T21:45:55.623Z,6.28
2023-11-21T21:48:57.338Z,6.10
2023-11-21T21:52:00.187Z,6.17
2023-11-21T21:55:02.009Z,6.24
2023-11-21T21:58:05.160Z,6.05
2023-11-21T22:01:06.895Z,6.03
2023-11-21T22:04:08.905Z,5.96
2023-11-21T22:07:10.733Z,5.96
2023-11-21T22:10:12.426Z,5.84
2023-11-21T22:13:15.553Z,5.78
2023-11-21T22:16:17.354Z,5.85
2023-11-21T22:19:19.195Z,5.87
2023-11-21T22:22:20.911Z,6.01
2023-11-21T22:25:23.133Z,6.07
2023-11-21T22:28:26.215Z,6.20
2023-11-21T22:31:27.984Z,6.13
2023-11-21T22:34:29.746Z,6.15
2023-11-21T22:37:31.505Z,5.99
2023-11-21T22:40:33.253Z,6.07
2023-11-21T22:43:36.338Z,6.15
2023-11-21T22:46:42.284Z,6.20
2023-11-21T22:49:44.029Z,6.17
2023-11-21T22:52:45.810Z,6.18
2023-11-21T22:55:47.522Z,6.13
2023-11-21T22:58:50.783Z,6.17
2023-11-21T23:01:52.616Z,6.21
2023-11-21T23:04:54.490Z,6.18
2023-11-21T23:07:56.279Z,6.22
2023-11-21T23:10:58.002Z,6.20
2023-11-21T23:14:01.173Z,6.29
2023-11-21T23:17:03.030Z,6.32
2023-11-21T23:20:06.102Z,6.38
2023-11-21T23:23:07.873Z,6.37
2023-11-21T23:26:09.681Z,6.38
2023-11-21T23:29:12.833Z,6.42
2023-11-21T23:32:15.425Z,6.41
2023-11-21T23:35:18.303Z,6.42
2023-11-21T23:38:20.136Z,6.44
2023-11-21T23:41:21.973Z,6.46
2023-11-21T23:44:25.240Z,6.46
2023-11-21T23:47:27.121Z,6.46
2023-11-21T23:50:30.915Z,6.43
2023-11-21T23:53:32.766Z,6.38
2023-11-21T23:56:34.554Z,6.38
2023-11-21T23:59:37.626Z,6.38
